Neraida — V7UA7 — position and weather

sailwx.info

Track history (hours):
 
Tides and Currents Weather Stations Pressure Air Temp Water Temp Dewpoint Dewpoint Depression Visibility Wind Speed Wind Dir Waves Ship Positions

Neraida

Last reported at 2018-Apr-28 20:06 UTC. Time now 2018-May-24 00:07 UTC.
Position N 09°11' W 079°52'.
Warning: this ship's position is 25 days out of date.

Length 190 m; draft 11.8 m.

Type: Cargo ship. MMSI: 538006998.

Date/timePositionNaut miles runAvg speedWind from/ knotsBaromVisibWave heightAir tempDewpointWater temp
2018-Apr-28 20:06N 09°11' W 079°52'1 9.3
2018-Apr-28 20:00N 09°11' W 079°53'3 6.4
2018-Apr-28 19:29N 09°14' W 079°55'1 3.0
2018-Apr-28 19:00N 09°15' W 079°55'0 0.4
2018-Apr-28 18:16N 09°15' W 079°55'0 0.1
2018-Apr-28 17:58N 09°15' W 079°55'0 0.1
2018-Apr-28 17:28N 09°15' W 079°55'0 0.0
2018-Apr-28 16:55N 09°15' W 079°55'0 0.0
2018-Apr-28 16:28N 09°15' W 079°55'0 0.0
2018-Apr-28 15:58N 09°15' W 079°55'0 0.0
2018-Apr-28 15:22N 09°15' W 079°55'0 0.0
2018-Apr-28 14:52N 09°15' W 079°55'0 0.1
2018-Apr-28 13:22N 09°15' W 079°55'0 0.1
2018-Apr-28 12:49N 09°15' W 079°55'0 0.0
2018-Apr-28 11:36N 09°15' W 079°55'0 0.9
2018-Apr-28 11:27N 09°15' W 079°55'1 2.4
2018-Apr-28 11:01N 09°16' W 079°55'0 0.4
2018-Apr-28 10:28N 09°16' W 079°55'0 0.4
2018-Apr-28 10:00N 09°17' W 079°55'0 0.8
2018-Apr-28 09:30N 09°17' W 079°55'3 5.9
2018-Apr-28 09:00N 09°20' W 079°55'4 7.4
2018-Apr-28 08:30N 09°24' W 079°55'3 5.1
2018-Apr-28 08:00N 09°26' W 079°56'2 3.9
2018-Apr-28 07:30N 09°27' W 079°57'0 0.0
2018-Apr-28 07:00N 09°27' W 079°57'0 0.0
2018-Apr-28 06:21N 09°27' W 079°57'0 0.0
2018-Apr-28 05:57N 09°27' W 079°57'0 0.0
2018-Apr-28 05:27N 09°27' W 079°57'0 0.0
2018-Apr-28 04:57N 09°27' W 079°57'0 0.0
2018-Apr-28 04:27N 09°27' W 079°57'0 0.0
2018-Apr-28 04:00N 09°27' W 079°57'0 0.0
2018-Apr-28 03:30N 09°27' W 079°57'0 0.0
2018-Apr-28 03:00N 09°27' W 079°57'0 0.0
2018-Apr-28 02:18N 09°27' W 079°57'0 0.0
2018-Apr-28 02:00N 09°27' W 079°57'0 0.0
2018-Apr-28 01:30N 09°27' W 079°57'0 0.0
2018-Apr-28 01:00N 09°27' W 079°57'0 0.0
2018-Apr-28 00:30N 09°27' W 079°57'0 0.0
2018-Apr-27 23:54N 09°27' W 079°57'0 0.0
2018-Apr-27 23:30N 09°27' W 079°57'0 0.0
2018-Apr-27 23:00N 09°27' W 079°57'0 0.0
2018-Apr-27 22:30N 09°27' W 079°57'0 0.0
2018-Apr-27 22:00N 09°27' W 079°57'0 0.0
2018-Apr-27 21:30N 09°27' W 079°57'0 0.0
2018-Apr-27 20:57N 09°27' W 079°57'0 0.0
2018-Apr-27 20:21N 09°27' W 079°57'0 0.0
2018-Apr-27 20:00N 09°27' W 079°57'0 0.0
2018-Apr-27 19:27N 09°27' W 079°57'0 0.0
2018-Apr-27 19:00N 09°27' W 079°57'0 0.0
2018-Apr-27 18:30N 09°27' W 079°57'0 0.0
2018-Apr-27 18:00N 09°27' W 079°57'0 0.0
2018-Apr-27 17:27N 09°27' W 079°57'0 0.0
2018-Apr-27 16:57N 09°27' W 079°57'0 0.0
2018-Apr-27 16:30N 09°27' W 079°57'0 0.0
2018-Apr-27 16:00N 09°27' W 079°57'0 0.0
2018-Apr-27 15:30N 09°27' W 079°57'0 0.0
2018-Apr-27 15:00N 09°27' W 079°57'0 0.0
2018-Apr-27 14:30N 09°27' W 079°57'0 0.0
2018-Apr-27 13:48N 09°27' W 079°57'0 0.0
2018-Apr-27 13:30N 09°27' W 079°57'0 0.0
2018-Apr-27 13:00N 09°27' W 079°57'0 0.0
2018-Apr-27 12:27N 09°27' W 079°57'0 0.0
2018-Apr-27 12:00N 09°27' W 079°57'0 0.3
2018-Apr-27 11:27N 09°27' W 079°57'0 0.6
2018-Apr-27 11:00N 09°27' W 079°57'2 4.5
2018-Apr-27 10:30N 09°28' W 079°55'3 6.4
2018-Apr-27 10:00N 09°31' W 079°54'  
2018-Apr-22 19:06N 11°14' W 074°39'313.3
2018-Apr-22 18:54N 11°13' W 074°41'513.4
2018-Apr-22 18:30N 11°11' W 074°46'712.2
2018-Apr-22 17:58N 11°08' W 074°52'3 6.9
2018-Apr-22 17:30N 11°05' W 074°51'611.3
2018-Apr-22 17:00N 11°01' W 074°47'4 7.0
2018-Apr-22 16:28N 10°58' W 074°46'0 0.0
2018-Apr-22 15:58N 10°58' W 074°45'0 0.0
2018-Apr-22 15:28N 10°58' W 074°46'0 0.0
2018-Apr-21 22:31N 10°58' W 074°46'0 0.0
2018-Apr-21 22:28N 10°58' W 074°46'0 0.0
2018-Apr-21 02:13N 10°58' W 074°45'0 0.0
2018-Apr-21 01:58N 10°58' W 074°46'0 0.0
2018-Apr-21 01:25N 10°58' W 074°46'0 0.0
2018-Apr-21 00:55N 10°58' W 074°45'0 0.0
2018-Apr-21 00:28N 10°58' W 074°46'0 0.0
2018-Apr-20 23:58N 10°58' W 074°46'0 0.0
2018-Apr-20 14:46N 10°58' W 074°46'0 0.0
2018-Apr-20 14:28N 10°58' W 074°46'0 0.0
2018-Apr-20 13:58N 10°58' W 074°46'0 0.0
2018-Apr-20 13:28N 10°58' W 074°46'0 0.0
2018-Apr-20 12:58N 10°58' W 074°46'0 0.0
2018-Apr-20 12:25N 10°58' W 074°46'0 0.0
2018-Apr-20 10:28N 10°58' W 074°46'0 0.0
2018-Apr-20 09:55N 10°58' W 074°46'0 0.0
2018-Apr-20 09:19N 10°58' W 074°45'0 0.0
2018-Apr-20 08:55N 10°58' W 074°45'0 0.0
2018-Apr-20 08:25N 10°58' W 074°46'0 0.0
2018-Apr-20 07:49N 10°58' W 074°46'0 0.0
2018-Apr-20 06:19N 10°58' W 074°45'0 0.0
2018-Apr-20 05:49N 10°58' W 074°46'2 0.2
2018-Apr-19 19:40N 10°60' W 074°46'1 7.3
2018-Apr-19 19:30N 11°01' W 074°46'4 8.0
2018-Apr-19 19:00N 11°03' W 074°50'4 8.8
2018-Apr-19 18:30N 11°07' W 074°51'2 3.1
2018-Apr-19 18:00N 11°08' W 074°53'4 7.6
2018-Apr-19 17:29N 11°09' W 074°49'4 8.3
2018-Apr-19 17:00N 11°10' W 074°45'5 9.7
2018-Apr-19 16:30N 11°10' W 074°40'814.7
2018-Apr-19 15:58N 11°11' W 074°32'714.7
2018-Apr-19 15:30N 11°13' W 074°25'1210.9
2018-Apr-19 14:23N 11°15' W 074°13'0 0.1
2018-Apr-19 10:01N 11°15' W 074°13'0 0.1
2018-Apr-19 09:55N 11°15' W 074°13'0 0.0
2018-Apr-19 04:07N 11°15' W 074°13'0 0.0
2018-Apr-19 03:55N 11°15' W 074°13'0 0.0
2018-Apr-19 03:28N 11°15' W 074°13'0 0.0
2018-Apr-19 02:58N 11°15' W 074°13'0 0.0
2018-Apr-19 02:28N 11°15' W 074°13'0 0.0
2018-Apr-19 01:58N 11°15' W 074°13'0 0.0
2018-Apr-18 22:49N 11°15' W 074°13'0 0.0
2018-Apr-18 22:25N 11°15' W 074°13'0 0.0
2018-Apr-18 21:55N 11°15' W 074°13'0 0.0
2018-Apr-18 21:16N 11°15' W 074°13'0 0.0
2018-Apr-18 20:58N 11°15' W 074°13'0 0.0
2018-Apr-18 20:28N 11°15' W 074°13'  
Track history (hours):
 
Tides and Currents Weather Stations Pressure Air Temp Water Temp Dewpoint Dewpoint Depression Visibility Wind Speed Wind Dir Waves Ship Positions

Neraida

Last reported at 2018-Apr-28 20:06 UTC. Time now 2018-May-24 00:07 UTC.
Position N 09°11' W 079°52'.
Warning: this ship's position is 25 days out of date.

Length 190 m; draft 11.8 m.

Type: Cargo ship. MMSI: 538006998.

Date/timePositionNaut miles runAvg speedWind from/ knotsBaromVisibWave heightAir tempDewpointWater temp
2018-Apr-28 20:06N 09°11' W 079°52'1 9.3
2018-Apr-28 20:00N 09°11' W 079°53'3 6.4
2018-Apr-28 19:29N 09°14' W 079°55'1 3.0
2018-Apr-28 19:00N 09°15' W 079°55'0 0.4
2018-Apr-28 18:16N 09°15' W 079°55'0 0.1
2018-Apr-28 17:58N 09°15' W 079°55'0 0.1
2018-Apr-28 17:28N 09°15' W 079°55'0 0.0
2018-Apr-28 16:55N 09°15' W 079°55'0 0.0
2018-Apr-28 16:28N 09°15' W 079°55'0 0.0
2018-Apr-28 15:58N 09°15' W 079°55'0 0.0
2018-Apr-28 15:22N 09°15' W 079°55'0 0.0
2018-Apr-28 14:52N 09°15' W 079°55'0 0.1
2018-Apr-28 13:22N 09°15' W 079°55'0 0.1
2018-Apr-28 12:49N 09°15' W 079°55'0 0.0
2018-Apr-28 11:36N 09°15' W 079°55'0 0.9
2018-Apr-28 11:27N 09°15' W 079°55'1 2.4
2018-Apr-28 11:01N 09°16' W 079°55'0 0.4
2018-Apr-28 10:28N 09°16' W 079°55'0 0.4
2018-Apr-28 10:00N 09°17' W 079°55'0 0.8
2018-Apr-28 09:30N 09°17' W 079°55'3 5.9
2018-Apr-28 09:00N 09°20' W 079°55'4 7.4
2018-Apr-28 08:30N 09°24' W 079°55'3 5.1
2018-Apr-28 08:00N 09°26' W 079°56'2 3.9
2018-Apr-28 07:30N 09°27' W 079°57'0 0.0
2018-Apr-28 07:00N 09°27' W 079°57'0 0.0
2018-Apr-28 06:21N 09°27' W 079°57'0 0.0
2018-Apr-28 05:57N 09°27' W 079°57'0 0.0
2018-Apr-28 05:27N 09°27' W 079°57'0 0.0
2018-Apr-28 04:57N 09°27' W 079°57'0 0.0
2018-Apr-28 04:27N 09°27' W 079°57'0 0.0
2018-Apr-28 04:00N 09°27' W 079°57'0 0.0
2018-Apr-28 03:30N 09°27' W 079°57'0 0.0
2018-Apr-28 03:00N 09°27' W 079°57'0 0.0
2018-Apr-28 02:18N 09°27' W 079°57'0 0.0
2018-Apr-28 02:00N 09°27' W 079°57'0 0.0
2018-Apr-28 01:30N 09°27' W 079°57'0 0.0
2018-Apr-28 01:00N 09°27' W 079°57'0 0.0
2018-Apr-28 00:30N 09°27' W 079°57'0 0.0
2018-Apr-27 23:54N 09°27' W 079°57'0 0.0
2018-Apr-27 23:30N 09°27' W 079°57'0 0.0
2018-Apr-27 23:00N 09°27' W 079°57'0 0.0
2018-Apr-27 22:30N 09°27' W 079°57'0 0.0
2018-Apr-27 22:00N 09°27' W 079°57'0 0.0
2018-Apr-27 21:30N 09°27' W 079°57'0 0.0
2018-Apr-27 20:57N 09°27' W 079°57'0 0.0
2018-Apr-27 20:21N 09°27' W 079°57'0 0.0
2018-Apr-27 20:00N 09°27' W 079°57'0 0.0
2018-Apr-27 19:27N 09°27' W 079°57'0 0.0
2018-Apr-27 19:00N 09°27' W 079°57'0 0.0
2018-Apr-27 18:30N 09°27' W 079°57'0 0.0
2018-Apr-27 18:00N 09°27' W 079°57'0 0.0
2018-Apr-27 17:27N 09°27' W 079°57'0 0.0
2018-Apr-27 16:57N 09°27' W 079°57'0 0.0
2018-Apr-27 16:30N 09°27' W 079°57'0 0.0
2018-Apr-27 16:00N 09°27' W 079°57'0 0.0
2018-Apr-27 15:30N 09°27' W 079°57'0 0.0
2018-Apr-27 15:00N 09°27' W 079°57'0 0.0
2018-Apr-27 14:30N 09°27' W 079°57'0 0.0
2018-Apr-27 13:48N 09°27' W 079°57'0 0.0
2018-Apr-27 13:30N 09°27' W 079°57'0 0.0
2018-Apr-27 13:00N 09°27' W 079°57'0 0.0
2018-Apr-27 12:27N 09°27' W 079°57'0 0.0
2018-Apr-27 12:00N 09°27' W 079°57'0 0.3
2018-Apr-27 11:27N 09°27' W 079°57'0 0.6
2018-Apr-27 11:00N 09°27' W 079°57'2 4.5
2018-Apr-27 10:30N 09°28' W 079°55'3 6.4
2018-Apr-27 10:00N 09°31' W 079°54'  
2018-Apr-22 19:06N 11°14' W 074°39'313.3
2018-Apr-22 18:54N 11°13' W 074°41'513.4
2018-Apr-22 18:30N 11°11' W 074°46'712.2
2018-Apr-22 17:58N 11°08' W 074°52'3 6.9
2018-Apr-22 17:30N 11°05' W 074°51'611.3
2018-Apr-22 17:00N 11°01' W 074°47'4 7.0
2018-Apr-22 16:28N 10°58' W 074°46'0 0.0
2018-Apr-22 15:58N 10°58' W 074°45'0 0.0
2018-Apr-22 15:28N 10°58' W 074°46'0 0.0
2018-Apr-21 22:31N 10°58' W 074°46'0 0.0
2018-Apr-21 22:28N 10°58' W 074°46'0 0.0
2018-Apr-21 02:13N 10°58' W 074°45'0 0.0
2018-Apr-21 01:58N 10°58' W 074°46'0 0.0
2018-Apr-21 01:25N 10°58' W 074°46'0 0.0
2018-Apr-21 00:55N 10°58' W 074°45'0 0.0
2018-Apr-21 00:28N 10°58' W 074°46'0 0.0
2018-Apr-20 23:58N 10°58' W 074°46'0 0.0
2018-Apr-20 14:46N 10°58' W 074°46'0 0.0
2018-Apr-20 14:28N 10°58' W 074°46'0 0.0
2018-Apr-20 13:58N 10°58' W 074°46'0 0.0
2018-Apr-20 13:28N 10°58' W 074°46'0 0.0
2018-Apr-20 12:58N 10°58' W 074°46'0 0.0
2018-Apr-20 12:25N 10°58' W 074°46'0 0.0
2018-Apr-20 10:28N 10°58' W 074°46'0 0.0
2018-Apr-20 09:55N 10°58' W 074°46'0 0.0
2018-Apr-20 09:19N 10°58' W 074°45'0 0.0
2018-Apr-20 08:55N 10°58' W 074°45'0 0.0
2018-Apr-20 08:25N 10°58' W 074°46'0 0.0
2018-Apr-20 07:49N 10°58' W 074°46'0 0.0
2018-Apr-20 06:19N 10°58' W 074°45'0 0.0
2018-Apr-20 05:49N 10°58' W 074°46'2 0.2
2018-Apr-19 19:40N 10°60' W 074°46'1 7.3
2018-Apr-19 19:30N 11°01' W 074°46'4 8.0
2018-Apr-19 19:00N 11°03' W 074°50'4 8.8
2018-Apr-19 18:30N 11°07' W 074°51'2 3.1
2018-Apr-19 18:00N 11°08' W 074°53'4 7.6
2018-Apr-19 17:29N 11°09' W 074°49'4 8.3
2018-Apr-19 17:00N 11°10' W 074°45'5 9.7
2018-Apr-19 16:30N 11°10' W 074°40'814.7
2018-Apr-19 15:58N 11°11' W 074°32'714.7
2018-Apr-19 15:30N 11°13' W 074°25'1210.9
2018-Apr-19 14:23N 11°15' W 074°13'0 0.1
2018-Apr-19 10:01N 11°15' W 074°13'0 0.1
2018-Apr-19 09:55N 11°15' W 074°13'0 0.0
2018-Apr-19 04:07N 11°15' W 074°13'0 0.0
2018-Apr-19 03:55N 11°15' W 074°13'0 0.0
2018-Apr-19 03:28N 11°15' W 074°13'0 0.0
2018-Apr-19 02:58N 11°15' W 074°13'0 0.0
2018-Apr-19 02:28N 11°15' W 074°13'0 0.0
2018-Apr-19 01:58N 11°15' W 074°13'0 0.0
2018-Apr-18 22:49N 11°15' W 074°13'0 0.0
2018-Apr-18 22:25N 11°15' W 074°13'0 0.0
2018-Apr-18 21:55N 11°15' W 074°13'0 0.0
2018-Apr-18 21:16N 11°15' W 074°13'0 0.0
2018-Apr-18 20:58N 11°15' W 074°13'0 0.0
2018-Apr-18 20:28N 11°15' W 074°13'  

Dump ship's entire track history